Time;durP1;ratioP1;P1;durP2;ratioP2;P2;SDS_P1;SDS_P2;PMS_P1;PMS_P2;Temp;Humidity;BMP_temperature;BMP_pressure;BME280_temperature;BME280_humidity;BME280_pressure;Samples;Min_cycle;Max_cycle;Signal;HPM_P1;HPM_P2
2023/04/04 00:01:00;;;;;;;6.67;3.10;;;;;;;1.00;50.57;96903.13;4967838;28;20891;-68
2023/04/04 00:03:26;;;;;;;7.50;3.40;;;;;;;1.13;50.85;96898.81;4967904;28;20214;-68
2023/04/04 00:05:51;;;;;;;6.30;3.43;;;;;;;1.30;50.37;96891.06;4967586;28;20425;-68
2023/04/04 00:08:17;;;;;;;5.20;2.60;;;;;;;1.23;51.08;96893.66;4967840;28;20205;-68
2023/04/04 00:10:42;;;;;;;4.10;3.20;;;;;;;1.00;51.67;96893.63;4967884;28;20268;-68
2023/04/04 00:13:08;;;;;;;4.10;2.90;;;;;;;1.26;51.28;96887.63;4967826;28;20216;-68
2023/04/04 00:15:35;;;;;;;4.90;3.43;;;;;;;1.34;51.15;96885.91;4967568;28;20189;-68
2023/04/04 00:18:02;;;;;;;4.70;2.60;;;;;;;1.21;51.22;96894.53;4967648;28;20493;-68
2023/04/04 00:20:29;;;;;;;3.67;3.27;;;;;;;1.12;52.19;96890.22;4967893;28;20500;-68
2023/04/04 00:22:54;;;;;;;4.37;3.53;;;;;;;0.92;52.71;96887.59;4971411;28;20413;-68
2023/04/04 00:25:20;;;;;;;4.90;3.33;;;;;;;1.32;52.24;96887.63;4971692;28;20772;-68
2023/04/04 00:27:46;;;;;;;3.17;2.93;;;;;;;1.04;52.19;96879.00;4971617;28;20686;-68
2023/04/04 00:30:12;;;;;;;3.50;3.03;;;;;;;0.96;53.00;96880.72;4970949;28;20197;-68
2023/04/04 00:42:59;;;;;;;10.17;3.57;;;;;;;0.73;54.04;96862.56;4951350;29;20406;-68
2023/04/04 00:45:26;;;;;;;7.43;3.70;;;;;;;0.71;55.03;96864.28;4951963;28;20425;-69
2023/04/04 00:47:54;;;;;;;5.10;3.53;;;;;;;0.80;54.51;96870.38;4951734;28;20500;-69
2023/04/04 00:50:19;;;;;;;5.70;3.43;;;;;;;0.61;54.80;96874.63;4952038;28;20426;-69
2023/04/04 00:52:44;;;;;;;6.00;3.70;;;;;;;0.52;55.88;96872.00;4950416;29;20549;-70
2023/04/04 00:55:10;;;;;;;5.20;3.80;;;;;;;0.87;54.57;96858.28;4951997;28;20181;-69
2023/04/04 00:57:36;;;;;;;4.70;3.40;;;;;;;0.99;54.82;96860.91;4951622;28;20181;-69
2023/04/04 01:00:04;;;;;;;3.67;3.20;;;;;;;0.75;54.91;96858.28;4950287;29;20993;-69
2023/04/04 01:02:30;;;;;;;9.00;4.30;;;;;;;0.55;55.37;96853.09;4950317;28;20241;-69
2023/04/04 01:04:56;;;;;;;3.67;3.37;;;;;;;0.47;55.34;96849.59;4951931;28;21046;-69
2023/04/04 01:07:21;;;;;;;4.10;3.80;;;;;;;0.69;55.51;96853.97;4951540;28;20425;-69
2023/04/04 01:09:47;;;;;;;5.10;4.30;;;;;;;0.79;55.07;96854.84;4951870;28;20182;-69
2023/04/04 01:12:13;;;;;;;10.77;4.30;;;;;;;0.76;56.01;96857.44;4951915;28;20170;-68
2023/04/04 01:14:39;;;;;;;5.13;3.60;;;;;;;0.86;54.69;96846.25;4951590;28;20220;-69
2023/04/04 01:17:04;;;;;;;4.93;3.20;;;;;;;0.72;54.71;96851.38;4951271;28;20258;-68
2023/04/04 01:19:37;;;;;;;4.10;3.73;;;;;;;0.38;56.47;96855.63;4951620;28;20537;-70
2023/04/04 01:22:05;;;;;;;4.63;4.23;;;;;;;0.28;57.50;96851.25;4950497;29;20553;-69
2023/04/04 01:24:33;;;;;;;5.33;3.97;;;;;;;0.33;56.78;96846.97;4951199;28;20410;-69
2023/04/04 01:26:59;;;;;;;4.30;3.90;;;;;;;0.33;57.02;96846.97;4951127;28;20681;-69
2023/04/04 01:29:26;;;;;;;7.83;3.20;;;;;;;0.60;55.68;96839.31;4951443;28;20445;-69
2023/04/04 01:32:07;;;;;;;7.40;3.70;;;;;;;0.63;55.54;96828.97;4965321;28;20444;-69
2023/04/04 01:34:56;;;;;;;3.63;3.30;;;;;;;0.50;56.47;96837.56;4969928;28;20472;-69
2023/04/04 01:37:41;;;;;;;5.93;3.70;;;;;;;0.20;57.39;96836.59;4970244;28;20899;-69
2023/04/04 01:40:20;;;;;;;4.10;3.80;;;;;;;0.37;56.52;96839.25;4970315;28;20444;-69
2023/04/04 01:42:48;;;;;;;4.13;3.63;;;;;;;0.40;57.23;96838.38;4970367;28;20409;-69
2023/04/04 01:45:13;;;;;;;4.00;3.60;;;;;;;0.36;56.98;96822.03;4970058;28;20536;-69
2023/04/04 01:47:40;;;;;;;3.67;3.27;;;;;;;0.38;56.87;96824.63;4969807;28;20969;-69
2023/04/04 01:50:10;;;;;;;4.33;3.50;;;;;;;0.32;56.78;96834.94;4970298;28;20187;-68
2023/04/04 01:52:36;;;;;;;4.57;3.73;;;;;;;0.19;58.03;96829.72;4970059;28;20452;-69
2023/04/04 01:55:02;;;;;;;5.87;2.83;;;;;;;0.40;56.80;96823.78;4970048;28;20591;-68
2023/04/04 01:57:28;;;;;;;7.43;4.10;;;;;;;0.54;57.02;96820.34;4969583;28;20417;-68
2023/04/04 01:59:54;;;;;;;4.10;2.80;;;;;;;0.72;55.76;96817.81;4969846;28;20463;-68
2023/04/04 02:02:19;;;;;;;3.47;3.27;;;;;;;0.48;56.44;96823.78;4969725;28;20470;-68
2023/04/04 02:04:45;;;;;;;3.50;3.20;;;;;;;0.46;55.93;96824.66;4969806;28;20181;-68
2023/04/04 02:07:10;;;;;;;4.43;3.57;;;;;;;0.46;56.36;96819.50;4969641;28;20546;-68
2023/04/04 02:09:36;;;;;;;3.63;3.00;;;;;;;0.51;56.18;96820.34;4969618;28;20324;-68
2023/04/04 02:12:01;;;;;;;3.93;3.63;;;;;;;0.66;55.10;96814.34;4969632;28;20640;-68
2023/04/04 02:14:26;;;;;;;4.93;3.50;;;;;;;0.70;55.09;96816.94;4984404;28;20198;-68
2023/04/04 02:16:52;;;;;;;3.20;2.77;;;;;;;0.93;55.11;96811.81;4984258;28;20719;-69
2023/04/04 02:19:18;;;;;;;3.30;3.00;;;;;;;0.45;56.44;96816.06;4969422;28;20615;-68
2023/04/04 02:21:44;;;;;;;3.37;3.00;;;;;;;0.80;55.05;96818.69;4969764;28;20546;-67
2023/04/04 02:24:10;;;;;;;5.93;3.67;;;;;;;0.88;55.39;96807.50;4969433;28;20746;-68
2023/04/04 02:26:36;;;;;;;6.13;3.90;;;;;;;1.11;54.67;96808.38;4969177;28;20178;-68
2023/04/04 02:29:01;;;;;;;4.30;2.83;;;;;;;1.20;54.48;96810.94;4969319;28;20281;-68
2023/04/04 02:31:27;;;;;;;5.93;3.50;;;;;;;0.76;54.66;96809.22;4967701;28;20512;-69
2023/04/04 02:33:53;;;;;;;3.93;3.17;;;;;;;0.68;55.72;96810.91;4969409;28;20583;-68
2023/04/04 02:36:18;;;;;;;4.33;3.47;;;;;;;0.76;55.58;96806.63;4969337;28;20181;-68
2023/04/04 02:38:44;;;;;;;4.03;3.67;;;;;;;0.41;56.59;96810.00;4984073;28;20924;-69
2023/04/04 02:41:09;;;;;;;8.00;3.20;;;;;;;0.93;55.63;96804.06;4969025;28;20280;-69
2023/04/04 02:43:35;;;;;;;4.00;3.13;;;;;;;0.65;55.64;96805.75;4969257;28;20901;-69
2023/04/04 02:46:00;;;;;;;3.40;3.00;;;;;;;0.78;55.45;96796.28;4966471;28;20183;-69
2023/04/04 02:48:26;;;;;;;5.37;3.83;;;;;;;0.80;55.02;96799.72;4968962;28;20197;-69
2023/04/04 02:50:51;;;;;;;5.00;3.00;;;;;;;0.80;54.67;96804.91;4969031;28;20182;-69
2023/04/04 02:53:17;;;;;;;4.03;2.93;;;;;;;0.83;55.43;96804.91;4969046;28;20208;-68
2023/04/04 02:55:42;;;;;;;5.67;3.40;;;;;;;0.40;56.84;96805.72;4968860;28;20279;-69
2023/04/04 02:58:08;;;;;;;5.80;3.47;;;;;;;0.05;57.73;96813.34;4967218;28;20194;-68
2023/04/04 03:00:33;;;;;;;3.73;3.00;;;;;;;0.31;56.65;96810.84;4968920;28;20173;-68
2023/04/04 03:02:59;;;;;;;5.50;3.23;;;;;;;0.08;57.33;96818.50;4968972;28;20180;-68
2023/04/04 03:05:25;;;;;;;3.93;3.27;;;;;;;-0.13;58.29;96813.25;4968563;28;20192;-68
2023/04/04 03:07:55;;;;;;;3.37;3.07;;;;;;;-0.17;58.30;96814.09;4968210;28;20227;-69
2023/04/04 03:10:22;;;;;;;5.30;3.73;;;;;;;0.17;57.14;96815.97;4967308;28;20421;-68
2023/04/04 03:12:47;;;;;;;5.00;3.60;;;;;;;-0.43;59.08;96809.66;4968339;28;20476;-69
2023/04/04 03:15:13;;;;;;;4.77;3.67;;;;;;;-0.46;59.58;96812.22;4968503;28;20413;-69
2023/04/04 03:17:39;;;;;;;4.83;3.40;;;;;;;-0.46;58.85;96807.06;4968049;28;20543;-69
2023/04/04 03:20:05;;;;;;;3.80;3.40;;;;;;;-0.14;58.74;96809.81;4968299;28;20169;-69
2023/04/04 03:22:30;;;;;;;4.90;3.93;;;;;;;-0.28;58.19;96803.75;4968285;28;20180;-69
2023/04/04 03:24:56;;;;;;;10.27;4.17;;;;;;;-0.26;58.40;96809.75;4968334;28;20224;-69
2023/04/04 03:27:21;;;;;;;7.13;4.63;;;;;;;-0.54;59.50;96801.03;4968010;28;20169;-69
2023/04/04 03:29:47;;;;;;;4.53;4.10;;;;;;;-0.64;59.42;96805.22;4968311;28;20280;-68
2023/04/04 03:32:12;;;;;;;3.90;3.60;;;;;;;-0.32;58.93;96797.69;4967655;28;20198;-69
2023/04/04 03:34:38;;;;;;;4.50;3.47;;;;;;;-0.37;58.60;96794.22;4979260;28;20192;-69
2023/04/04 03:37:03;;;;;;;4.47;3.23;;;;;;;-0.29;58.44;96800.28;4987190;28;20654;-69
2023/04/04 03:39:29;;;;;;;3.30;2.93;;;;;;;-0.36;59.49;96797.66;4972696;28;20216;-69
2023/04/04 03:41:56;;;;;;;3.93;3.43;;;;;;;-0.63;59.17;96796.66;4967870;28;20647;-69
2023/04/04 03:44:22;;;;;;;7.50;3.20;;;;;;;-0.01;57.95;96802.97;4968103;28;20307;-69
2023/04/04 03:46:47;;;;;;;6.50;4.67;;;;;;;0.01;57.66;96805.59;4967688;28;20520;-69
2023/04/04 03:49:13;;;;;;;4.70;3.30;;;;;;;-0.18;58.40;96804.63;4967646;28;20312;-69
2023/04/04 03:51:38;;;;;;;4.90;3.30;;;;;;;-0.34;58.75;96796.81;4968234;28;20187;-69
2023/04/04 03:54:03;;;;;;;7.30;3.27;;;;;;;-0.50;59.08;96801.00;4967985;28;20209;-69
2023/04/04 03:56:31;;;;;;;7.10;3.80;;;;;;;-0.49;58.97;96805.34;4969551;28;20229;-69
2023/04/04 03:58:57;;;;;;;6.40;3.77;;;;;;;-0.54;59.21;96791.56;4974136;28;20193;-69
2023/04/04 04:01:22;;;;;;;4.43;3.43;;;;;;;-0.57;59.65;96801.84;4974437;28;20413;-68
2023/04/04 04:03:48;;;;;;;8.40;3.80;;;;;;;-0.74;59.87;96794.00;4974400;28;20519;-68
2023/04/04 04:06:13;;;;;;;3.57;3.30;;;;;;;-0.51;59.58;96801.03;4974165;28;20177;-69
2023/04/04 04:08:39;;;;;;;5.90;3.77;;;;;;;-0.90;60.41;96805.03;4974279;28;20225;-68
2023/04/04 04:11:05;;;;;;;6.10;3.63;;;;;;;-0.67;59.75;96805.22;4974408;28;20228;-68
2023/04/04 04:13:31;;;;;;;6.10;4.03;;;;;;;-0.69;60.26;96800.03;4974195;28;20217;-68
2023/04/04 04:15:56;;;;;;;4.40;3.63;;;;;;;-0.74;59.47;96799.16;4974076;28;20417;-68
2023/04/04 04:18:22;;;;;;;4.57;4.17;;;;;;;-0.60;59.82;96791.50;4974218;28;20199;-69
2023/04/04 04:20:47;;;;;;;4.17;3.00;;;;;;;-0.79;59.80;96799.97;4974371;28;20188;-68
2023/04/04 04:23:12;;;;;;;4.53;3.90;;;;;;;-0.78;59.88;96805.16;4974510;28;20244;-68
2023/04/04 04:25:38;;;;;;;3.57;3.27;;;;;;;-0.95;60.41;96809.31;4974137;28;20224;-67
2023/04/04 04:28:03;;;;;;;6.57;3.23;;;;;;;-0.69;59.72;96802.63;4973820;28;20263;-68
2023/04/04 04:30:29;;;;;;;3.73;3.37;;;;;;;-0.81;59.92;96802.53;4971104;28;20245;-68
2023/04/04 04:32:55;;;;;;;7.43;3.80;;;;;;;-0.73;59.95;96808.63;4954843;28;20303;-68
2023/04/04 04:35:20;;;;;;;5.80;3.90;;;;;;;-0.97;60.17;96805.84;4954876;28;20524;-68
2023/04/04 04:37:46;;;;;;;5.17;3.90;;;;;;;-0.94;60.64;96805.91;4954520;28;20198;-69
2023/04/04 04:40:13;;;;;;;5.60;3.50;;;;;;;-0.98;60.43;96817.03;4954824;28;20249;-67
2023/04/04 04:42:44;;;;;;;4.10;3.70;;;;;;;-1.00;60.73;96818.72;4954956;28;20182;-68
2023/04/04 04:45:10;;;;;;;9.30;4.70;;;;;;;-1.04;60.07;96814.38;4955195;28;20513;-67
2023/04/04 04:47:36;;;;;;;7.03;4.10;;;;;;;-1.17;60.63;96818.59;4954532;28;20529;-68
2023/04/04 04:50:02;;;;;;;5.17;3.40;;;;;;;-1.19;61.48;96822.84;4954650;28;20174;-69
2023/04/04 04:52:30;;;;;;;5.67;3.53;;;;;;;-1.21;60.96;96809.94;4954577;28;20420;-69
2023/04/04 04:55:10;;;;;;;4.70;4.03;;;;;;;-1.11;61.20;96823.75;4954883;28;20189;-69
2023/04/04 04:57:37;;;;;;;3.67;3.30;;;;;;;-1.20;61.07;96827.16;4954197;28;20417;-68
2023/04/04 05:00:03;;;;;;;6.80;4.03;;;;;;;-1.09;60.74;96816.91;4953317;28;21122;-69
2023/04/04 05:02:29;;;;;;;9.43;4.03;;;;;;;-1.10;61.43;96822.94;4953785;28;20441;-69
2023/04/04 05:04:55;;;;;;;4.00;3.70;;;;;;;-1.19;61.02;96826.28;4954276;28;20413;-68
2023/04/04 05:07:22;;;;;;;4.67;4.03;;;;;;;-0.90;60.34;96828.22;4952001;28;20192;-68
2023/04/04 05:09:47;;;;;;;4.63;3.93;;;;;;;-0.84;59.67;96827.44;4950690;28;20182;-69
2023/04/04 05:12:13;;;;;;;4.13;3.70;;;;;;;-0.89;59.48;96830.84;4949667;29;20465;-69
2023/04/04 05:14:38;;;;;;;5.53;3.90;;;;;;;-0.68;59.35;96827.56;4951312;28;20985;-69
2023/04/04 05:17:03;;;;;;;4.10;3.43;;;;;;;-0.66;58.88;96820.69;4950945;28;20204;-69
2023/04/04 05:19:29;;;;;;;3.60;3.27;;;;;;;-0.58;58.26;96820.75;4952203;28;20209;-69
2023/04/04 05:21:55;;;;;;;5.10;3.57;;;;;;;-0.57;58.38;96824.19;4951542;28;20182;-68
2023/04/04 05:24:22;;;;;;;5.30;3.87;;;;;;;-0.60;58.28;96826.75;4951585;28;20513;-68
2023/04/04 05:26:47;;;;;;;4.50;4.10;;;;;;;-0.65;58.28;96821.56;4951064;28;20182;-68
2023/04/04 05:29:13;;;;;;;3.73;3.33;;;;;;;-0.32;57.48;96825.19;4951038;28;20496;-68
2023/04/04 05:31:38;;;;;;;8.30;3.20;;;;;;;-0.26;56.69;96823.53;4963453;28;20185;-68
2023/04/04 05:34:07;;;;;;;7.43;4.30;;;;;;;-0.54;57.61;96827.66;4970594;28;20557;-68
2023/04/04 05:36:34;;;;;;;3.40;3.10;;;;;;;-0.89;59.32;96829.97;4969799;28;20269;-68
2023/04/04 05:39:00;;;;;;;4.07;3.40;;;;;;;-0.51;57.84;96831.97;4970072;28;20534;-68
2023/04/04 05:41:26;;;;;;;6.30;4.00;;;;;;;-0.41;57.16;96828.56;4969964;28;20433;-69
2023/04/04 05:43:51;;;;;;;6.13;4.00;;;;;;;0.12;55.91;96828.00;4970669;28;20413;-69
2023/04/04 05:46:17;;;;;;;5.73;3.50;;;;;;;1.14;52.47;96826.44;4970156;28;20166;-69
2023/04/04 05:48:42;;;;;;;5.47;3.20;;;;;;;1.84;50.03;96829.78;4988431;28;20316;-69
2023/04/04 05:51:08;;;;;;;4.47;4.07;;;;;;;2.85;48.25;96818.09;4989721;28;20180;-67
2023/04/04 05:53:33;;;;;;;4.90;3.07;;;;;;;3.30;45.61;96821.22;4989555;28;20200;-69
2023/04/04 05:55:59;;;;;;;6.57;3.83;;;;;;;3.42;45.48;96810.72;4989072;28;20185;-68
2023/04/04 05:58:25;;;;;;;5.07;3.73;;;;;;;4.11;43.75;96822.13;5005350;28;20303;-68
2023/04/04 06:00:51;;;;;;;6.30;3.60;;;;;;;4.79;42.09;96806.50;4991555;28;20412;-67
2023/04/04 06:03:16;;;;;;;5.00;3.80;;;;;;;5.01;41.82;96812.25;4989571;28;20175;-69
2023/04/04 06:05:43;;;;;;;3.97;3.57;;;;;;;5.58;40.01;96813.94;4989046;28;20424;-69
2023/04/04 06:08:09;;;;;;;4.67;3.20;;;;;;;5.45;40.43;96819.31;4988809;28;20283;-67
2023/04/04 06:10:34;;;;;;;4.47;3.13;;;;;;;5.91;39.49;96813.31;5004203;28;21018;-69
2023/04/04 06:13:00;;;;;;;4.33;3.10;;;;;;;6.79;37.59;96803.72;4964818;28;20696;-68
2023/04/04 06:15:25;;;;;;;4.50;3.77;;;;;;;5.94;38.13;96812.44;4972447;28;20635;-68
2023/04/04 06:17:50;;;;;;;4.60;2.90;;;;;;;6.41;37.21;96813.22;4965885;28;20198;-69
2023/04/04 06:20:18;;;;;;;7.70;3.60;;;;;;;4.35;42.03;96789.81;4949941;28;20676;-69
2023/04/04 06:22:43;;;;;;;6.97;2.90;;;;;;;4.66;41.45;96816.22;4950406;28;20260;-68
2023/04/04 06:25:09;;;;;;;6.40;3.00;;;;;;;4.91;41.52;96818.47;4950184;28;20422;-69
2023/04/04 06:27:35;;;;;;;5.67;3.20;;;;;;;4.50;41.06;96814.72;4949919;28;20226;-69
2023/04/04 06:30:01;;;;;;;4.70;3.40;;;;;;;4.17;42.37;96827.25;4959821;28;20504;-68
2023/04/04 06:32:26;;;;;;;5.37;3.23;;;;;;;4.40;41.99;96817.44;4950770;28;20182;-69
2023/04/04 06:34:52;;;;;;;9.23;3.70;;;;;;;4.99;41.23;96814.03;4950443;28;20417;-69
2023/04/04 06:37:17;;;;;;;9.23;3.87;;;;;;;4.74;41.61;96811.78;4959578;28;20169;-68
2023/04/04 06:39:43;;;;;;;5.63;3.03;;;;;;;4.51;41.27;96819.03;4975274;28;20570;-70
2023/04/04 06:42:08;;;;;;;4.80;2.97;;;;;;;4.03;42.33;96825.66;4955896;28;20222;-69
2023/04/04 06:44:34;;;;;;;5.70;3.27;;;;;;;4.70;42.32;96817.03;4971154;28;20174;-69
2023/04/04 06:46:59;;;;;;;4.03;3.33;;;;;;;6.05;39.40;96820.06;4985228;28;20177;-69
2023/04/04 06:49:25;;;;;;;3.30;3.00;;;;;;;4.15;42.11;96819.47;4988073;28;20850;-69
2023/04/04 06:51:51;;;;;;;6.80;3.77;;;;;;;3.47;43.38;96819.31;4967502;28;20205;-70
2023/04/04 06:54:17;;;;;;;3.90;2.87;;;;;;;4.09;42.55;96823.91;4980302;28;20295;-69
2023/04/04 06:56:42;;;;;;;4.77;3.17;;;;;;;4.38;41.99;96819.19;4988012;28;20417;-69
2023/04/04 06:59:10;;;;;;;10.90;3.70;;;;;;;4.63;40.74;96808.44;4977736;28;20193;-69
2023/04/04 07:01:35;;;;;;;3.87;3.17;;;;;;;4.59;41.11;96812.84;4975943;28;20185;-69
2023/04/04 07:04:01;;;;;;;4.97;2.97;;;;;;;4.12;41.57;96821.25;4978779;28;20425;-69
2023/04/04 07:06:28;;;;;;;3.63;3.13;;;;;;;4.10;41.99;96825.59;5003720;28;20267;-69
2023/04/04 07:08:54;;;;;;;5.27;3.13;;;;;;;4.32;42.41;96819.25;4990261;28;20208;-69
2023/04/04 07:11:22;;;;;;;3.33;3.03;;;;;;;4.26;41.75;96813.31;4976294;28;20429;-70
2023/04/04 07:13:48;;;;;;;3.50;2.80;;;;;;;3.94;42.19;96814.53;4969374;28;20292;-70
2023/04/04 07:16:13;;;;;;;5.53;3.50;;;;;;;4.43;41.04;96803.53;4968463;28;20547;-69
2023/04/04 07:18:39;;;;;;;3.80;3.30;;;;;;;4.47;40.91;96805.22;4969662;28;20221;-69
2023/04/04 07:21:04;;;;;;;4.37;3.37;;;;;;;3.98;42.14;96835.25;4954375;28;20182;-71
2023/04/04 07:23:30;;;;;;;5.77;3.90;;;;;;;3.90;42.24;96818.91;4975871;28;20235;-69
2023/04/04 07:25:56;;;;;;;7.40;3.30;;;;;;;4.15;41.34;96818.63;4974760;28;20177;-70
2023/04/04 07:28:21;;;;;;;4.17;3.47;;;;;;;3.90;41.81;96816.31;4986171;28;20541;-70
2023/04/04 07:30:47;;;;;;;8.27;3.70;;;;;;;4.17;42.07;96824.66;4956982;28;20182;-71
2023/04/04 07:33:12;;;;;;;4.53;3.73;;;;;;;4.15;42.11;96818.63;4977712;28;20245;-70
2023/04/04 07:35:38;;;;;;;5.60;4.90;;;;;;;4.46;40.36;96819.09;4987808;28;20179;-70
2023/04/04 07:38:03;;;;;;;7.40;4.80;;;;;;;4.51;40.61;96817.28;4987893;28;20296;-70
2023/04/04 07:40:29;;;;;;;4.10;2.77;;;;;;;4.64;40.24;96813.63;4978178;28;20921;-70
2023/04/04 07:42:55;;;;;;;4.30;2.80;;;;;;;4.85;40.09;96804.69;4980004;28;20646;-69
2023/04/04 07:45:23;;;;;;;7.13;4.10;;;;;;;5.47;38.98;96808.91;4986873;28;20475;-71
2023/04/04 07:47:48;;;;;;;5.07;3.77;;;;;;;4.69;39.71;96823.97;4985708;28;20219;-70
2023/04/04 07:50:15;;;;;;;3.87;3.10;;;;;;;4.45;40.73;96800.03;4979319;28;20455;-74
2023/04/04 07:52:41;;;;;;;5.70;3.47;;;;;;;3.78;42.19;96814.69;4982284;28;20196;-70
2023/04/04 07:55:07;;;;;;;8.70;3.20;;;;;;;4.66;40.86;96814.47;4971415;28;20409;-70
2023/04/04 07:57:36;;;;;;;7.77;3.43;;;;;;;4.51;40.16;96826.81;4987147;28;20235;-70
2023/04/04 08:00:04;;;;;;;8.70;4.30;;;;;;;4.50;40.32;96825.13;4974251;28;20416;-69
2023/04/04 08:02:32;;;;;;;7.73;4.80;;;;;;;4.62;40.41;96823.19;4968051;28;20483;-70
2023/04/04 08:04:57;;;;;;;5.37;4.37;;;;;;;4.41;40.13;96821.75;4968389;28;20499;-69
2023/04/04 08:07:24;;;;;;;4.40;3.87;;;;;;;3.63;41.70;96832.16;4968058;28;20492;-69
2023/04/04 08:09:49;;;;;;;7.63;3.53;;;;;;;4.39;40.28;96833.03;4968111;28;20181;-69
2023/04/04 08:12:15;;;;;;;5.67;4.10;;;;;;;4.59;39.86;96807.66;4966815;28;20508;-69
2023/04/04 08:14:40;;;;;;;4.10;3.50;;;;;;;5.21;38.85;96817.13;4967900;28;20201;-69
2023/04/04 08:17:07;;;;;;;5.33;3.47;;;;;;;4.27;40.43;96818.47;4967016;28;20433;-70
2023/04/04 08:19:32;;;;;;;7.30;3.33;;;;;;;4.01;40.69;96814.44;4968229;28;20190;-69
2023/04/04 08:21:57;;;;;;;9.77;4.60;;;;;;;4.76;39.66;96803.97;4968267;28;20428;-70
2023/04/04 08:24:23;;;;;;;5.00;3.80;;;;;;;4.81;39.32;96809.94;4967931;28;20170;-71
2023/04/04 08:26:48;;;;;;;6.30;3.60;;;;;;;4.32;40.03;96815.81;4967380;28;21003;-69
2023/04/04 08:29:14;;;;;;;4.10;3.47;;;;;;;3.51;41.89;96823.59;4967851;28;20686;-69
2023/04/04 08:31:40;;;;;;;3.40;3.10;;;;;;;4.54;39.47;96816.41;4967581;28;20195;-69
2023/04/04 08:34:07;;;;;;;6.90;3.70;;;;;;;4.25;39.42;96812.41;4967392;28;20212;-70
2023/04/04 08:36:33;;;;;;;4.47;3.73;;;;;;;4.11;40.61;96811.72;4966748;28;20635;-70
2023/04/04 08:38:59;;;;;;;4.23;3.80;;;;;;;4.14;40.61;96809.13;4967917;28;20538;-72
2023/04/04 08:41:25;;;;;;;4.80;4.30;;;;;;;4.00;41.80;96815.31;4967032;28;20587;-71
2023/04/04 08:43:55;;;;;;;3.72;3.30;;;;;;;3.83;41.58;96812.06;4968752;28;20449;-70
2023/04/04 08:46:24;;;;;;;4.10;3.33;;;;;;;3.82;41.19;96811.19;4970902;28;20414;-70
2023/04/04 08:48:51;;;;;;;3.90;3.50;;;;;;;3.61;41.32;96814.00;4971522;28;20436;-72
2023/04/04 08:51:20;;;;;;;4.33;3.70;;;;;;;4.00;41.07;96809.28;4972118;28;20424;-71
2023/04/04 08:53:45;;;;;;;5.37;3.40;;;;;;;3.99;41.09;96810.13;4970194;28;20476;-69
2023/04/04 08:56:12;;;;;;;7.20;3.90;;;;;;;3.30;41.37;96827.25;4971213;28;20433;-71
2023/04/04 08:58:38;;;;;;;6.60;3.47;;;;;;;3.37;40.36;96818.53;4971243;28;20614;-70
2023/04/04 09:01:05;;;;;;;6.47;3.97;;;;;;;3.55;40.05;96817.53;4971423;28;20419;-70
2023/04/04 09:03:33;;;;;;;3.80;3.13;;;;;;;4.12;39.70;96809.13;4970641;28;20162;-68
2023/04/04 09:06:00;;;;;;;6.20;3.70;;;;;;;4.37;39.13;96814.00;4970948;28;20423;-69
2023/04/04 09:08:27;;;;;;;4.87;3.73;;;;;;;4.11;39.04;96806.53;4969801;28;20542;-70
2023/04/04 09:10:53;;;;;;;4.83;3.60;;;;;;;4.23;37.36;96811.59;4971300;28;20415;-70
2023/04/04 09:13:19;;;;;;;4.93;4.07;;;;;;;4.41;37.04;96816.53;4971339;28;20456;-69
2023/04/04 09:15:47;;;;;;;6.50;3.90;;;;;;;5.13;36.92;96811.22;4971232;28;20690;-69
2023/04/04 09:18:14;;;;;;;5.03;3.70;;;;;;;5.15;35.64;96789.50;4971342;28;20224;-69
2023/04/04 09:20:41;;;;;;;7.97;4.90;;;;;;;5.31;35.52;96810.88;4970961;28;20416;-70
2023/04/04 09:23:10;;;;;;;5.20;3.70;;;;;;;5.10;35.54;96817.28;4970415;28;20448;-69
2023/04/04 09:25:36;;;;;;;4.67;4.20;;;;;;;5.02;36.46;96803.56;4970882;28;20552;-68
2023/04/04 09:28:04;;;;;;;5.10;4.60;;;;;;;4.98;35.54;96812.28;4970611;28;20516;-68
2023/04/04 09:30:34;;;;;;;6.30;4.17;;;;;;;4.56;36.99;96815.50;4967538;28;20174;-68
2023/04/04 09:33:04;;;;;;;4.97;4.43;;;;;;;5.28;36.50;96813.56;4951775;28;20472;-70
2023/04/04 09:35:43;;;;;;;9.07;4.80;;;;;;;5.23;36.09;96813.63;4952019;28;20414;-70
2023/04/04 09:38:08;;;;;;;5.33;4.83;;;;;;;4.78;36.40;96818.66;4951374;29;20516;-70
2023/04/04 09:40:35;;;;;;;5.20;4.20;;;;;;;5.25;36.01;96824.88;4950622;28;21428;-70
2023/04/04 09:43:02;;;;;;;6.40;5.00;;;;;;;5.06;36.04;96820.84;4951803;28;20253;-70
2023/04/04 09:45:39;;;;;;;4.20;3.80;;;;;;;5.00;36.31;96815.72;4951570;28;20939;-70
2023/04/04 09:48:05;;;;;;;6.90;3.87;;;;;;;4.29;37.50;96824.50;4958950;28;20448;-70
2023/04/04 09:50:32;;;;;;;4.90;3.73;;;;;;;4.52;36.50;96820.75;4970550;28;20497;-70
2023/04/04 09:52:59;;;;;;;8.97;3.80;;;;;;;4.71;36.70;96831.78;4970277;28;21066;-70
2023/04/04 09:55:31;;;;;;;4.40;3.67;;;;;;;5.17;35.61;96825.88;4968759;28;20474;-70
2023/04/04 09:57:57;;;;;;;4.10;3.70;;;;;;;4.92;35.84;96828.00;4969151;28;20190;-69
2023/04/04 10:00:29;;;;;;;4.90;4.30;;;;;;;5.30;35.37;96824.81;4971054;28;20472;-69
2023/04/04 10:02:57;;;;;;;6.40;3.70;;;;;;;5.77;34.58;96819.66;4970521;28;20201;-68
2023/04/04 10:05:23;;;;;;;3.97;3.60;;;;;;;6.41;33.93;96828.88;4970275;28;20853;-69
2023/04/04 10:07:48;;;;;;;6.87;3.73;;;;;;;6.20;33.98;96824.09;4970150;28;20530;-69
2023/04/04 10:10:14;;;;;;;6.10;3.70;;;;;;;6.52;33.68;96824.31;4971250;28;21256;-70
2023/04/04 10:12:40;;;;;;;3.97;3.60;;;;;;;6.35;33.80;96823.78;4970492;28;20546;-69
2023/04/04 10:15:07;;;;;;;7.10;4.13;;;;;;;5.79;34.08;96823.06;4970539;28;20417;-70
2023/04/04 10:17:37;;;;;;;6.87;4.73;;;;;;;5.96;34.33;96821.06;4969837;28;20285;-69
2023/04/04 10:20:05;;;;;;;3.40;3.10;;;;;;;7.00;32.86;96798.00;4970069;28;20484;-70
2023/04/04 10:22:35;;;;;;;4.20;3.60;;;;;;;7.04;32.03;96808.38;4968417;28;20432;-69
2023/04/04 10:25:02;;;;;;;4.00;3.60;;;;;;;6.39;31.63;96824.59;4969928;28;20507;-70
2023/04/04 10:27:27;;;;;;;6.23;4.20;;;;;;;5.80;33.99;96814.41;4970012;28;20420;-69
2023/04/04 10:29:53;;;;;;;4.80;3.33;;;;;;;5.67;33.69;96813.75;4970158;28;20397;-69
2023/04/04 10:32:28;;;;;;;8.70;4.67;;;;;;;5.69;34.43;96810.25;4970136;28;20394;-70
2023/04/04 10:35:04;;;;;;;5.57;4.53;;;;;;;6.00;33.80;96812.31;4968455;28;20197;-69
2023/04/04 10:37:36;;;;;;;6.53;4.03;;;;;;;5.55;34.96;96803.56;4969512;28;20441;-69
2023/04/04 10:40:10;;;;;;;5.40;4.27;;;;;;;5.63;34.76;96806.91;4969525;28;20437;-69
2023/04/04 10:42:43;;;;;;;4.57;4.00;;;;;;;5.95;33.68;96801.09;4969656;28;20819;-69
2023/04/04 10:45:09;;;;;;;4.77;4.27;;;;;;;6.12;33.84;96812.06;4969346;28;20414;-68
2023/04/04 10:47:36;;;;;;;10.40;4.37;;;;;;;5.66;33.83;96806.84;4965150;28;20477;-69
2023/04/04 10:50:06;;;;;;;7.93;4.30;;;;;;;5.19;34.73;96817.16;4949872;28;20965;-69
2023/04/04 10:52:32;;;;;;;6.20;3.65;;;;;;;5.14;35.13;96811.16;4949633;28;20408;-69
2023/04/04 10:55:03;;;;;;;4.80;4.30;;;;;;;5.89;34.50;96815.09;4950883;28;20248;-69
2023/04/04 10:57:29;;;;;;;4.57;4.17;;;;;;;6.45;33.30;96796.66;4958707;28;20406;-69
2023/04/04 11:00:05;;;;;;;17.80;6.30;;;;;;;6.79;33.29;96793.28;4949779;28;20434;-70
2023/04/04 11:02:56;;;;;;;7.90;4.30;;;;;;;6.70;32.59;96793.50;4949903;29;20420;-69
2023/04/04 11:05:33;;;;;;;5.33;4.83;;;;;;;6.32;32.83;96803.00;4949861;28;20915;-69
2023/04/04 11:08:02;;;;;;;4.77;4.37;;;;;;;6.15;33.61;96805.94;4948003;29;20442;-69
2023/04/04 11:10:30;;;;;;;7.90;4.20;;;;;;;5.78;33.90;96803.16;4949923;29;20424;-68
2023/04/04 11:13:06;;;;;;;6.87;5.30;;;;;;;5.64;34.21;96791.22;4950105;28;23061;-70
2023/04/04 11:15:59;;;;;;;4.70;4.20;;;;;;;5.83;34.17;96798.69;4965287;28;20448;-69
2023/04/04 11:18:30;;;;;;;6.77;4.27;;;;;;;6.28;33.21;96801.31;4968163;28;20193;-69
2023/04/04 11:20:56;;;;;;;7.33;5.90;;;;;;;6.88;32.58;96792.22;4968459;28;20552;-68
2023/04/04 11:23:22;;;;;;;5.30;4.23;;;;;;;6.94;31.54;96782.47;4967066;28;20520;-68
2023/04/04 11:25:50;;;;;;;5.00;4.23;;;;;;;5.88;33.54;96799.47;4969030;28;20181;-69
2023/04/04 11:28:25;;;;;;;3.97;3.67;;;;;;;6.02;34.07;96792.28;4967165;28;20943;-68
2023/04/04 11:31:19;;;;;;;5.47;4.60;;;;;;;7.03;32.86;96786.63;4962077;28;20412;-69
2023/04/04 11:34:02;;;;;;;5.70;4.83;;;;;;;7.08;32.83;96791.75;4947339;28;20564;-70
2023/04/04 11:36:34;;;;;;;5.37;4.83;;;;;;;5.60;33.95;96796.50;4949183;28;20577;-70
2023/04/04 11:39:08;;;;;;;5.23;3.97;;;;;;;6.06;33.57;96788.72;4948923;28;20426;-70
2023/04/04 11:41:46;;;;;;;5.23;4.37;;;;;;;5.74;34.30;96789.34;4949449;28;20504;-69
2023/04/04 11:44:12;;;;;;;6.13;4.77;;;;;;;5.82;34.57;96789.19;4949338;28;20891;-70
2023/04/04 11:46:38;;;;;;;4.10;3.73;;;;;;;6.36;32.89;96787.25;4948965;28;20417;-69
2023/04/04 11:49:05;;;;;;;6.23;4.20;;;;;;;6.05;34.30;96787.03;4963828;28;20204;-70